sensor_id;sensor_type;location;lat;lon;timestamp;P1;durP1;ratioP1;P2;durP2;ratioP2
16436;SDS011;8328;52.206;21.006;2022-10-15T00:00:26;154.23;;;42.88;;
16436;SDS011;8328;52.206;21.006;2022-10-15T00:02:52;152.80;;;44.33;;
16436;SDS011;8328;52.206;21.006;2022-10-15T00:05:18;156.67;;;46.87;;
16436;SDS011;8328;52.206;21.006;2022-10-15T00:07:44;151.48;;;43.83;;
16436;SDS011;8328;52.206;21.006;2022-10-15T00:10:10;152.60;;;42.73;;
16436;SDS011;8328;52.206;21.006;2022-10-15T00:12:37;151.82;;;41.38;;
16436;SDS011;8328;52.206;21.006;2022-10-15T00:15:03;148.65;;;43.00;;
16436;SDS011;8328;52.206;21.006;2022-10-15T00:17:29;148.32;;;41.75;;
16436;SDS011;8328;52.206;21.006;2022-10-15T00:19:57;151.20;;;42.53;;
16436;SDS011;8328;52.206;21.006;2022-10-15T00:22:22;148.77;;;41.97;;
16436;SDS011;8328;52.206;21.006;2022-10-15T00:24:48;152.87;;;42.87;;
16436;SDS011;8328;52.206;21.006;2022-10-15T00:27:14;149.97;;;42.70;;
16436;SDS011;8328;52.206;21.006;2022-10-15T00:29:40;155.83;;;44.80;;
16436;SDS011;8328;52.206;21.006;2022-10-15T00:32:06;146.67;;;41.43;;
16436;SDS011;8328;52.206;21.006;2022-10-15T00:34:31;159.80;;;44.13;;
16436;SDS011;8328;52.206;21.006;2022-10-15T00:36:57;166.80;;;46.33;;
16436;SDS011;8328;52.206;21.006;2022-10-15T00:39:23;159.67;;;43.17;;
16436;SDS011;8328;52.206;21.006;2022-10-15T00:41:49;167.17;;;44.93;;
16436;SDS011;8328;52.206;21.006;2022-10-15T00:51:55;170.98;;;46.63;;
16436;SDS011;8328;52.206;21.006;2022-10-15T00:54:26;157.73;;;42.35;;
16436;SDS011;8328;52.206;21.006;2022-10-15T00:56:55;168.00;;;45.08;;
16436;SDS011;8328;52.206;21.006;2022-10-15T00:59:22;165.25;;;47.03;;
16436;SDS011;8328;52.206;21.006;2022-10-15T01:01:51;158.82;;;43.97;;
16436;SDS011;8328;52.206;21.006;2022-10-15T01:04:18;161.15;;;44.80;;
16436;SDS011;8328;52.206;21.006;2022-10-15T01:06:45;159.98;;;44.53;;
16436;SDS011;8328;52.206;21.006;2022-10-15T01:09:11;160.87;;;44.67;;
16436;SDS011;8328;52.206;21.006;2022-10-15T01:14:13;154.90;;;43.97;;
16436;SDS011;8328;52.206;21.006;2022-10-15T01:22:48;155.93;;;44.05;;
16436;SDS011;8328;52.206;21.006;2022-10-15T01:36:31;184.18;;;54.03;;
16436;SDS011;8328;52.206;21.006;2022-10-15T01:42:06;158.50;;;44.92;;
16436;SDS011;8328;52.206;21.006;2022-10-15T01:44:46;160.77;;;44.75;;
16436;SDS011;8328;52.206;21.006;2022-10-15T01:47:21;159.40;;;42.72;;
16436;SDS011;8328;52.206;21.006;2022-10-15T01:49:54;159.23;;;42.33;;
16436;SDS011;8328;52.206;21.006;2022-10-15T01:52:26;166.35;;;46.58;;
16436;SDS011;8328;52.206;21.006;2022-10-15T01:54:55;165.95;;;46.45;;
16436;SDS011;8328;52.206;21.006;2022-10-15T01:57:23;167.38;;;45.58;;
16436;SDS011;8328;52.206;21.006;2022-10-15T01:59:51;159.45;;;44.35;;
16436;SDS011;8328;52.206;21.006;2022-10-15T02:02:18;163.23;;;43.13;;
16436;SDS011;8328;52.206;21.006;2022-10-15T02:04:44;170.00;;;45.77;;
16436;SDS011;8328;52.206;21.006;2022-10-15T02:10:13;159.25;;;47.60;;
16436;SDS011;8328;52.206;21.006;2022-10-15T02:15:16;163.70;;;43.63;;
16436;SDS011;8328;52.206;21.006;2022-10-15T02:18:34;166.30;;;46.20;;
16436;SDS011;8328;52.206;21.006;2022-10-15T02:21:05;164.43;;;44.25;;
16436;SDS011;8328;52.206;21.006;2022-10-15T02:23:44;163.00;;;44.60;;
16436;SDS011;8328;52.206;21.006;2022-10-15T02:26:27;166.48;;;44.72;;
16436;SDS011;8328;52.206;21.006;2022-10-15T02:28:56;166.98;;;45.28;;
16436;SDS011;8328;52.206;21.006;2022-10-15T02:31:24;166.82;;;45.20;;
16436;SDS011;8328;52.206;21.006;2022-10-15T02:33:54;159.25;;;42.40;;
16436;SDS011;8328;52.206;21.006;2022-10-15T02:36:24;172.65;;;45.08;;
16436;SDS011;8328;52.206;21.006;2022-10-15T02:38:51;162.45;;;43.20;;
16436;SDS011;8328;52.206;21.006;2022-10-15T02:41:20;162.98;;;44.03;;
16436;SDS011;8328;52.206;21.006;2022-10-15T02:43:47;171.40;;;45.75;;
16436;SDS011;8328;52.206;21.006;2022-10-15T02:46:13;162.43;;;43.35;;
16436;SDS011;8328;52.206;21.006;2022-10-15T02:48:40;177.82;;;44.88;;
16436;SDS011;8328;52.206;21.006;2022-10-15T02:51:05;165.30;;;48.80;;
16436;SDS011;8328;52.206;21.006;2022-10-15T02:53:31;160.07;;;43.57;;
16436;SDS011;8328;52.206;21.006;2022-10-15T02:55:57;163.70;;;45.55;;
16436;SDS011;8328;52.206;21.006;2022-10-15T02:58:23;168.37;;;45.37;;
16436;SDS011;8328;52.206;21.006;2022-10-15T03:00:50;161.15;;;44.40;;
16436;SDS011;8328;52.206;21.006;2022-10-15T03:03:15;160.97;;;44.43;;
16436;SDS011;8328;52.206;21.006;2022-10-15T03:05:42;161.60;;;45.50;;
16436;SDS011;8328;52.206;21.006;2022-10-15T03:08:07;157.73;;;42.90;;
16436;SDS011;8328;52.206;21.006;2022-10-15T03:10:33;163.93;;;45.77;;
16436;SDS011;8328;52.206;21.006;2022-10-15T03:13:03;162.35;;;45.55;;
16436;SDS011;8328;52.206;21.006;2022-10-15T03:15:29;164.52;;;45.70;;
16436;SDS011;8328;52.206;21.006;2022-10-15T03:17:56;163.05;;;44.55;;
16436;SDS011;8328;52.206;21.006;2022-10-15T03:20:21;159.23;;;44.03;;
16436;SDS011;8328;52.206;21.006;2022-10-15T03:22:47;159.73;;;44.47;;
16436;SDS011;8328;52.206;21.006;2022-10-15T03:25:13;157.47;;;42.97;;
16436;SDS011;8328;52.206;21.006;2022-10-15T03:27:39;157.85;;;43.22;;
16436;SDS011;8328;52.206;21.006;2022-10-15T03:30:05;157.77;;;44.37;;
16436;SDS011;8328;52.206;21.006;2022-10-15T03:32:31;173.23;;;46.20;;
16436;SDS011;8328;52.206;21.006;2022-10-15T03:34:57;163.90;;;45.37;;
16436;SDS011;8328;52.206;21.006;2022-10-15T03:37:22;153.20;;;42.43;;
16436;SDS011;8328;52.206;21.006;2022-10-15T03:39:48;158.47;;;44.80;;
16436;SDS011;8328;52.206;21.006;2022-10-15T03:42:14;160.93;;;44.57;;
16436;SDS011;8328;52.206;21.006;2022-10-15T03:44:40;153.17;;;41.63;;
16436;SDS011;8328;52.206;21.006;2022-10-15T03:47:06;156.97;;;43.67;;
16436;SDS011;8328;52.206;21.006;2022-10-15T03:49:32;163.85;;;43.13;;
16436;SDS011;8328;52.206;21.006;2022-10-15T03:51:57;165.77;;;50.17;;
16436;SDS011;8328;52.206;21.006;2022-10-15T03:54:23;171.63;;;49.53;;
16436;SDS011;8328;52.206;21.006;2022-10-15T03:56:49;156.43;;;41.93;;
16436;SDS011;8328;52.206;21.006;2022-10-15T03:59:15;159.90;;;42.80;;
16436;SDS011;8328;52.206;21.006;2022-10-15T04:01:42;157.50;;;42.83;;
16436;SDS011;8328;52.206;21.006;2022-10-15T04:04:09;158.73;;;43.20;;
16436;SDS011;8328;52.206;21.006;2022-10-15T04:06:36;157.23;;;43.33;;
16436;SDS011;8328;52.206;21.006;2022-10-15T04:09:02;163.30;;;45.95;;
16436;SDS011;8328;52.206;21.006;2022-10-15T04:11:28;174.13;;;48.50;;
16436;SDS011;8328;52.206;21.006;2022-10-15T04:13:54;168.43;;;46.07;;
16436;SDS011;8328;52.206;21.006;2022-10-15T04:16:20;155.03;;;42.67;;
16436;SDS011;8328;52.206;21.006;2022-10-15T04:18:45;158.97;;;43.33;;
16436;SDS011;8328;52.206;21.006;2022-10-15T04:21:11;160.57;;;45.17;;
16436;SDS011;8328;52.206;21.006;2022-10-15T04:23:37;173.37;;;45.70;;
16436;SDS011;8328;52.206;21.006;2022-10-15T04:26:03;155.27;;;42.40;;
16436;SDS011;8328;52.206;21.006;2022-10-15T04:28:30;157.57;;;43.22;;
16436;SDS011;8328;52.206;21.006;2022-10-15T04:31:00;162.50;;;46.22;;
16436;SDS011;8328;52.206;21.006;2022-10-15T04:33:26;164.73;;;44.50;;
16436;SDS011;8328;52.206;21.006;2022-10-15T04:36:03;165.77;;;44.83;;
16436;SDS011;8328;52.206;21.006;2022-10-15T04:38:31;162.73;;;43.75;;
16436;SDS011;8328;52.206;21.006;2022-10-15T04:41:01;162.07;;;43.13;;
16436;SDS011;8328;52.206;21.006;2022-10-15T04:43:29;160.27;;;42.75;;
16436;SDS011;8328;52.206;21.006;2022-10-15T04:45:59;170.73;;;46.47;;
16436;SDS011;8328;52.206;21.006;2022-10-15T04:48:29;173.07;;;46.78;;
16436;SDS011;8328;52.206;21.006;2022-10-15T04:51:03;161.48;;;41.78;;
16436;SDS011;8328;52.206;21.006;2022-10-15T04:53:30;164.75;;;43.22;;
16436;SDS011;8328;52.206;21.006;2022-10-15T04:55:59;167.48;;;45.80;;
16436;SDS011;8328;52.206;21.006;2022-10-15T04:58:27;163.93;;;44.78;;
16436;SDS011;8328;52.206;21.006;2022-10-15T05:00:57;160.63;;;44.63;;
16436;SDS011;8328;52.206;21.006;2022-10-15T05:03:25;156.82;;;42.15;;
16436;SDS011;8328;52.206;21.006;2022-10-15T05:05:50;162.57;;;44.07;;
16436;SDS011;8328;52.206;21.006;2022-10-15T05:08:16;163.03;;;45.03;;
16436;SDS011;8328;52.206;21.006;2022-10-15T05:10:42;190.03;;;54.37;;
16436;SDS011;8328;52.206;21.006;2022-10-15T05:13:08;179.07;;;50.00;;
16436;SDS011;8328;52.206;21.006;2022-10-15T05:15:34;194.57;;;55.15;;
16436;SDS011;8328;52.206;21.006;2022-10-15T05:17:59;190.27;;;51.50;;
16436;SDS011;8328;52.206;21.006;2022-10-15T05:20:25;208.37;;;56.93;;
16436;SDS011;8328;52.206;21.006;2022-10-15T05:22:51;186.93;;;48.97;;
16436;SDS011;8328;52.206;21.006;2022-10-15T05:25:16;184.87;;;49.13;;
16436;SDS011;8328;52.206;21.006;2022-10-15T05:27:42;193.23;;;51.17;;
16436;SDS011;8328;52.206;21.006;2022-10-15T05:30:08;186.73;;;49.97;;
16436;SDS011;8328;52.206;21.006;2022-10-15T05:32:34;198.57;;;54.17;;
16436;SDS011;8328;52.206;21.006;2022-10-15T05:35:00;188.70;;;50.87;;
16436;SDS011;8328;52.206;21.006;2022-10-15T05:37:26;188.50;;;49.23;;
16436;SDS011;8328;52.206;21.006;2022-10-15T05:39:51;187.27;;;50.50;;
16436;SDS011;8328;52.206;21.006;2022-10-15T05:42:17;180.17;;;46.93;;
16436;SDS011;8328;52.206;21.006;2022-10-15T05:44:43;181.03;;;48.70;;
16436;SDS011;8328;52.206;21.006;2022-10-15T05:47:08;176.73;;;48.53;;
16436;SDS011;8328;52.206;21.006;2022-10-15T05:49:36;169.68;;;46.08;;
16436;SDS011;8328;52.206;21.006;2022-10-15T05:52:02;170.63;;;43.63;;
16436;SDS011;8328;52.206;21.006;2022-10-15T05:54:28;170.80;;;45.28;;
16436;SDS011;8328;52.206;21.006;2022-10-15T05:56:54;165.07;;;43.90;;
16436;SDS011;8328;52.206;21.006;2022-10-15T05:59:19;165.77;;;46.37;;
16436;SDS011;8328;52.206;21.006;2022-10-15T06:01:45;171.20;;;44.63;;
16436;SDS011;8328;52.206;21.006;2022-10-15T06:04:22;158.13;;;41.70;;
16436;SDS011;8328;52.206;21.006;2022-10-15T06:06:48;160.15;;;42.25;;
16436;SDS011;8328;52.206;21.006;2022-10-15T06:09:13;163.50;;;45.53;;
16436;SDS011;8328;52.206;21.006;2022-10-15T06:11:39;169.53;;;46.93;;
16436;SDS011;8328;52.206;21.006;2022-10-15T06:14:05;166.70;;;46.27;;
16436;SDS011;8328;52.206;21.006;2022-10-15T06:16:31;154.10;;;42.20;;
16436;SDS011;8328;52.206;21.006;2022-10-15T06:19:10;159.77;;;45.25;;
16436;SDS011;8328;52.206;21.006;2022-10-15T06:21:36;172.65;;;49.03;;
16436;SDS011;8328;52.206;21.006;2022-10-15T06:24:02;164.20;;;47.27;;
16436;SDS011;8328;52.206;21.006;2022-10-15T06:26:27;166.30;;;45.67;;
16436;SDS011;8328;52.206;21.006;2022-10-15T06:28:53;166.60;;;44.80;;
16436;SDS011;8328;52.206;21.006;2022-10-15T06:31:29;161.45;;;43.15;;
16436;SDS011;8328;52.206;21.006;2022-10-15T06:34:05;173.05;;;48.25;;
16436;SDS011;8328;52.206;21.006;2022-10-15T06:36:30;182.17;;;51.23;;
16436;SDS011;8328;52.206;21.006;2022-10-15T06:38:56;163.93;;;42.67;;
16436;SDS011;8328;52.206;21.006;2022-10-15T06:41:22;173.73;;;45.40;;
16436;SDS011;8328;52.206;21.006;2022-10-15T06:43:48;184.90;;;44.27;;
16436;SDS011;8328;52.206;21.006;2022-10-15T06:46:14;193.40;;;48.28;;
16436;SDS011;8328;52.206;21.006;2022-10-15T06:48:40;186.60;;;47.58;;
16436;SDS011;8328;52.206;21.006;2022-10-15T06:51:06;180.07;;;45.70;;
16436;SDS011;8328;52.206;21.006;2022-10-15T06:53:32;175.27;;;43.63;;
16436;SDS011;8328;52.206;21.006;2022-10-15T06:55:59;174.75;;;44.75;;
16436;SDS011;8328;52.206;21.006;2022-10-15T06:58:26;175.75;;;43.28;;
16436;SDS011;8328;52.206;21.006;2022-10-15T07:00:52;203.25;;;44.92;;
16436;SDS011;8328;52.206;21.006;2022-10-15T07:03:24;163.10;;;43.55;;
16436;SDS011;8328;52.206;21.006;2022-10-15T07:05:50;154.03;;;43.83;;
16436;SDS011;8328;52.206;21.006;2022-10-15T07:08:16;160.80;;;46.80;;
16436;SDS011;8328;52.206;21.006;2022-10-15T07:10:41;152.80;;;41.87;;
16436;SDS011;8328;52.206;21.006;2022-10-15T07:13:07;164.47;;;44.10;;
16436;SDS011;8328;52.206;21.006;2022-10-15T07:15:33;153.73;;;42.10;;
16436;SDS011;8328;52.206;21.006;2022-10-15T07:17:59;166.33;;;46.33;;
16436;SDS011;8328;52.206;21.006;2022-10-15T07:20:28;157.32;;;43.22;;
16436;SDS011;8328;52.206;21.006;2022-10-15T07:22:55;154.55;;;43.50;;
16436;SDS011;8328;52.206;21.006;2022-10-15T07:25:27;162.27;;;46.38;;
16436;SDS011;8328;52.206;21.006;2022-10-15T07:27:54;158.55;;;45.58;;
16436;SDS011;8328;52.206;21.006;2022-10-15T07:30:21;150.90;;;42.00;;
16436;SDS011;8328;52.206;21.006;2022-10-15T07:32:47;161.77;;;46.63;;
16436;SDS011;8328;52.206;21.006;2022-10-15T07:35:13;150.60;;;42.83;;
16436;SDS011;8328;52.206;21.006;2022-10-15T07:37:39;154.57;;;44.77;;
16436;SDS011;8328;52.206;21.006;2022-10-15T07:40:05;155.43;;;44.47;;
16436;SDS011;8328;52.206;21.006;2022-10-15T07:42:31;150.85;;;43.72;;
16436;SDS011;8328;52.206;21.006;2022-10-15T07:44:57;148.10;;;41.07;;
16436;SDS011;8328;52.206;21.006;2022-10-15T07:47:23;151.43;;;42.10;;
16436;SDS011;8328;52.206;21.006;2022-10-15T07:49:49;150.20;;;42.93;;
16436;SDS011;8328;52.206;21.006;2022-10-15T07:52:15;152.47;;;43.17;;
16436;SDS011;8328;52.206;21.006;2022-10-15T07:54:40;162.00;;;46.33;;
16436;SDS011;8328;52.206;21.006;2022-10-15T07:57:06;152.40;;;42.53;;
16436;SDS011;8328;52.206;21.006;2022-10-15T07:59:33;157.68;;;44.78;;
16436;SDS011;8328;52.206;21.006;2022-10-15T08:01:59;154.27;;;44.65;;
16436;SDS011;8328;52.206;21.006;2022-10-15T08:04:25;152.33;;;43.27;;
16436;SDS011;8328;52.206;21.006;2022-10-15T08:06:51;151.17;;;43.97;;
16436;SDS011;8328;52.206;21.006;2022-10-15T08:09:16;166.03;;;50.67;;
16436;SDS011;8328;52.206;21.006;2022-10-15T08:11:42;150.77;;;44.75;;
16436;SDS011;8328;52.206;21.006;2022-10-15T08:14:08;150.23;;;44.93;;
16436;SDS011;8328;52.206;21.006;2022-10-15T08:16:34;153.40;;;45.20;;
16436;SDS011;8328;52.206;21.006;2022-10-15T08:19:00;156.17;;;46.27;;
16436;SDS011;8328;52.206;21.006;2022-10-15T08:21:25;148.97;;;43.50;;
16436;SDS011;8328;52.206;21.006;2022-10-15T08:23:51;151.50;;;44.60;;
16436;SDS011;8328;52.206;21.006;2022-10-15T08:26:17;165.47;;;49.27;;
16436;SDS011;8328;52.206;21.006;2022-10-15T08:28:43;147.90;;;43.33;;
16436;SDS011;8328;52.206;21.006;2022-10-15T08:31:10;149.23;;;44.03;;
16436;SDS011;8328;52.206;21.006;2022-10-15T08:33:36;154.38;;;42.38;;
16436;SDS011;8328;52.206;21.006;2022-10-15T08:36:06;149.00;;;44.07;;
16436;SDS011;8328;52.206;21.006;2022-10-15T08:38:32;147.80;;;42.67;;
16436;SDS011;8328;52.206;21.006;2022-10-15T08:40:59;158.82;;;45.20;;
16436;SDS011;8328;52.206;21.006;2022-10-15T08:46:04;153.13;;;44.70;;
16436;SDS011;8328;52.206;21.006;2022-10-15T08:48:36;164.38;;;49.33;;
16436;SDS011;8328;52.206;21.006;2022-10-15T08:51:16;147.65;;;43.17;;
16436;SDS011;8328;52.206;21.006;2022-10-15T08:53:55;144.10;;;41.88;;
16436;SDS011;8328;52.206;21.006;2022-10-15T08:56:35;157.90;;;45.05;;
16436;SDS011;8328;52.206;21.006;2022-10-15T09:02:02;148.82;;;44.70;;
16436;SDS011;8328;52.206;21.006;2022-10-15T09:05:08;145.25;;;42.88;;
16436;SDS011;8328;52.206;21.006;2022-10-15T09:08:46;149.23;;;44.60;;
16436;SDS011;8328;52.206;21.006;2022-10-15T09:10:51;155.50;;;43.15;;
16436;SDS011;8328;52.206;21.006;2022-10-15T09:13:29;156.02;;;48.10;;
16436;SDS011;8328;52.206;21.006;2022-10-15T09:16:19;140.68;;;42.78;;
16436;SDS011;8328;52.206;21.006;2022-10-15T09:18:49;145.00;;;44.40;;
16436;SDS011;8328;52.206;21.006;2022-10-15T09:21:19;162.27;;;50.72;;
16436;SDS011;8328;52.206;21.006;2022-10-15T09:23:48;141.82;;;42.78;;
16436;SDS011;8328;52.206;21.006;2022-10-15T09:35:33;141.93;;;43.25;;
16436;SDS011;8328;52.206;21.006;2022-10-15T09:43:17;139.60;;;43.05;;
16436;SDS011;8328;52.206;21.006;2022-10-15T09:45:54;141.52;;;43.58;;
16436;SDS011;8328;52.206;21.006;2022-10-15T09:48:21;136.10;;;42.33;;
16436;SDS011;8328;52.206;21.006;2022-10-15T09:50:57;138.90;;;44.78;;
16436;SDS011;8328;52.206;21.006;2022-10-15T09:56:34;131.85;;;41.00;;
16436;SDS011;8328;52.206;21.006;2022-10-15T09:59:14;140.73;;;45.65;;
16436;SDS011;8328;52.206;21.006;2022-10-15T10:02:03;136.82;;;44.15;;
16436;SDS011;8328;52.206;21.006;2022-10-15T10:04:43;138.65;;;43.53;;
16436;SDS011;8328;52.206;21.006;2022-10-15T10:07:22;132.47;;;42.10;;
16436;SDS011;8328;52.206;21.006;2022-10-15T10:09:57;133.65;;;42.55;;
16436;SDS011;8328;52.206;21.006;2022-10-15T10:12:27;131.23;;;42.80;;
16436;SDS011;8328;52.206;21.006;2022-10-15T10:14:58;130.18;;;41.60;;
16436;SDS011;8328;52.206;21.006;2022-10-15T10:17:25;140.35;;;44.28;;
16436;SDS011;8328;52.206;21.006;2022-10-15T10:25:26;132.50;;;42.45;;
16436;SDS011;8328;52.206;21.006;2022-10-15T10:30:36;135.52;;;43.45;;
16436;SDS011;8328;52.206;21.006;2022-10-15T10:33:09;129.93;;;41.50;;
16436;SDS011;8328;52.206;21.006;2022-10-15T10:35:45;138.18;;;45.08;;
16436;SDS011;8328;52.206;21.006;2022-10-15T10:38:20;142.48;;;48.03;;
16436;SDS011;8328;52.206;21.006;2022-10-15T10:40:54;132.45;;;43.55;;
16436;SDS011;8328;52.206;21.006;2022-10-15T10:43:51;127.43;;;41.97;;
16436;SDS011;8328;52.206;21.006;2022-10-15T10:46:19;126.95;;;41.92;;
16436;SDS011;8328;52.206;21.006;2022-10-15T10:48:49;124.75;;;41.55;;
16436;SDS011;8328;52.206;21.006;2022-10-15T10:51:18;128.20;;;42.40;;
16436;SDS011;8328;52.206;21.006;2022-10-15T10:53:59;120.93;;;40.78;;
16436;SDS011;8328;52.206;21.006;2022-10-15T10:56:33;124.22;;;43.10;;
16436;SDS011;8328;52.206;21.006;2022-10-15T10:59:27;119.78;;;41.05;;
16436;SDS011;8328;52.206;21.006;2022-10-15T11:02:08;119.25;;;41.78;;
16436;SDS011;8328;52.206;21.006;2022-10-15T11:04:36;115.53;;;40.28;;
16436;SDS011;8328;52.206;21.006;2022-10-15T11:09:52;128.30;;;47.03;;
16436;SDS011;8328;52.206;21.006;2022-10-15T11:15:46;113.50;;;41.63;;
16436;SDS011;8328;52.206;21.006;2022-10-15T11:23:22;111.03;;;41.30;;
16436;SDS011;8328;52.206;21.006;2022-10-15T11:25:58;116.47;;;42.85;;
16436;SDS011;8328;52.206;21.006;2022-10-15T11:39:42;107.07;;;41.25;;
16436;SDS011;8328;52.206;21.006;2022-10-15T11:42:36;111.80;;;43.17;;
16436;SDS011;8328;52.206;21.006;2022-10-15T11:45:22;115.10;;;44.50;;
16436;SDS011;8328;52.206;21.006;2022-10-15T11:51:07;102.13;;;39.70;;
16436;SDS011;8328;52.206;21.006;2022-10-15T11:56:13;100.68;;;39.78;;
16436;SDS011;8328;52.206;21.006;2022-10-15T12:01:44;101.05;;;40.25;;
16436;SDS011;8328;52.206;21.006;2022-10-15T12:04:17;100.60;;;40.75;;
16436;SDS011;8328;52.206;21.006;2022-10-15T12:06:52;96.63;;;39.38;;
16436;SDS011;8328;52.206;21.006;2022-10-15T12:09:25;94.60;;;38.90;;
16436;SDS011;8328;52.206;21.006;2022-10-15T12:12:01;100.18;;;41.03;;
16436;SDS011;8328;52.206;21.006;2022-10-15T12:14:42;95.28;;;39.28;;
16436;SDS011;8328;52.206;21.006;2022-10-15T12:17:17;99.15;;;40.60;;
16436;SDS011;8328;52.206;21.006;2022-10-15T12:19:52;96.25;;;39.80;;
16436;SDS011;8328;52.206;21.006;2022-10-15T12:22:31;95.20;;;39.35;;
16436;SDS011;8328;52.206;21.006;2022-10-15T12:24:59;95.72;;;39.38;;
16436;SDS011;8328;52.206;21.006;2022-10-15T12:27:29;95.43;;;38.88;;
16436;SDS011;8328;52.206;21.006;2022-10-15T12:32:40;147.95;;;44.22;;
16436;SDS011;8328;52.206;21.006;2022-10-15T12:37:38;143.82;;;41.90;;
16436;SDS011;8328;52.206;21.006;2022-10-15T12:42:50;148.98;;;43.28;;
16436;SDS011;8328;52.206;21.006;2022-10-15T12:45:26;121.40;;;41.60;;
16436;SDS011;8328;52.206;21.006;2022-10-15T12:50:31;94.40;;;40.90;;
16436;SDS011;8328;52.206;21.006;2022-10-15T12:53:00;89.95;;;38.88;;
16436;SDS011;8328;52.206;21.006;2022-10-15T12:55:45;91.85;;;39.65;;
16436;SDS011;8328;52.206;21.006;2022-10-15T12:58:46;94.07;;;40.13;;
16436;SDS011;8328;52.206;21.006;2022-10-15T13:03:39;91.77;;;40.20;;
16436;SDS011;8328;52.206;21.006;2022-10-15T13:08:54;90.88;;;39.30;;
16436;SDS011;8328;52.206;21.006;2022-10-15T13:11:45;90.18;;;39.80;;
16436;SDS011;8328;52.206;21.006;2022-10-15T13:14:24;89.88;;;39.47;;
16436;SDS011;8328;52.206;21.006;2022-10-15T13:17:04;92.15;;;40.38;;
16436;SDS011;8328;52.206;21.006;2022-10-15T13:19:45;93.03;;;40.85;;
16436;SDS011;8328;52.206;21.006;2022-10-15T13:22:24;92.18;;;39.92;;
16436;SDS011;8328;52.206;21.006;2022-10-15T13:24:51;92.05;;;39.15;;
16436;SDS011;8328;52.206;21.006;2022-10-15T13:27:22;90.57;;;38.72;;
16436;SDS011;8328;52.206;21.006;2022-10-15T13:29:54;93.70;;;40.05;;
16436;SDS011;8328;52.206;21.006;2022-10-15T13:32:21;90.63;;;38.53;;
16436;SDS011;8328;52.206;21.006;2022-10-15T13:34:48;92.18;;;39.17;;
16436;SDS011;8328;52.206;21.006;2022-10-15T13:37:19;91.68;;;39.75;;
16436;SDS011;8328;52.206;21.006;2022-10-15T13:39:50;88.85;;;38.33;;
16436;SDS011;8328;52.206;21.006;2022-10-15T13:42:18;89.95;;;39.53;;
16436;SDS011;8328;52.206;21.006;2022-10-15T13:44:59;88.60;;;38.92;;
16436;SDS011;8328;52.206;21.006;2022-10-15T13:50:40;92.57;;;40.78;;
16436;SDS011;8328;52.206;21.006;2022-10-15T13:52:55;86.85;;;38.00;;
16436;SDS011;8328;52.206;21.006;2022-10-15T13:55:37;89.28;;;38.75;;
16436;SDS011;8328;52.206;21.006;2022-10-15T13:58:16;90.55;;;39.88;;
16436;SDS011;8328;52.206;21.006;2022-10-15T14:00:53;92.18;;;40.58;;
16436;SDS011;8328;52.206;21.006;2022-10-15T14:03:23;94.57;;;42.03;;
16436;SDS011;8328;52.206;21.006;2022-10-15T14:05:50;91.53;;;39.63;;
16436;SDS011;8328;52.206;21.006;2022-10-15T14:08:27;90.65;;;39.10;;
16436;SDS011;8328;52.206;21.006;2022-10-15T14:10:58;91.22;;;39.25;;
16436;SDS011;8328;52.206;21.006;2022-10-15T14:13:24;91.28;;;39.72;;
16436;SDS011;8328;52.206;21.006;2022-10-15T14:16:09;89.95;;;39.13;;
16436;SDS011;8328;52.206;21.006;2022-10-15T14:18:43;90.32;;;38.85;;
16436;SDS011;8328;52.206;21.006;2022-10-15T14:21:12;90.35;;;38.97;;
16436;SDS011;8328;52.206;21.006;2022-10-15T14:23:40;92.40;;;39.97;;
16436;SDS011;8328;52.206;21.006;2022-10-15T14:26:07;88.85;;;38.55;;
16436;SDS011;8328;52.206;21.006;2022-10-15T14:28:35;91.07;;;39.70;;
16436;SDS011;8328;52.206;21.006;2022-10-15T14:31:02;92.25;;;40.30;;
16436;SDS011;8328;52.206;21.006;2022-10-15T14:33:32;92.35;;;40.90;;
16436;SDS011;8328;52.206;21.006;2022-10-15T14:36:41;90.03;;;40.17;;
16436;SDS011;8328;52.206;21.006;2022-10-15T14:38:49;88.40;;;39.55;;
16436;SDS011;8328;52.206;21.006;2022-10-15T14:41:20;89.82;;;40.05;;
16436;SDS011;8328;52.206;21.006;2022-10-15T14:43:58;89.28;;;39.20;;
16436;SDS011;8328;52.206;21.006;2022-10-15T14:46:37;89.32;;;38.78;;
16436;SDS011;8328;52.206;21.006;2022-10-15T14:49:37;90.15;;;39.13;;
16436;SDS011;8328;52.206;21.006;2022-10-15T14:51:59;96.57;;;40.58;;
16436;SDS011;8328;52.206;21.006;2022-10-15T14:54:33;100.32;;;41.33;;
16436;SDS011;8328;52.206;21.006;2022-10-15T14:57:10;96.43;;;39.40;;
16436;SDS011;8328;52.206;21.006;2022-10-15T14:59:48;97.18;;;39.22;;
16436;SDS011;8328;52.206;21.006;2022-10-15T15:02:18;98.15;;;39.35;;
16436;SDS011;8328;52.206;21.006;2022-10-15T15:04:45;103.22;;;40.97;;
16436;SDS011;8328;52.206;21.006;2022-10-15T15:07:18;100.50;;;39.55;;
16436;SDS011;8328;52.206;21.006;2022-10-15T15:09:48;103.32;;;40.90;;
16436;SDS011;8328;52.206;21.006;2022-10-15T15:12:22;105.97;;;40.00;;
16436;SDS011;8328;52.206;21.006;2022-10-15T15:14:50;108.72;;;41.17;;
16436;SDS011;8328;52.206;21.006;2022-10-15T15:17:23;110.70;;;40.97;;
16436;SDS011;8328;52.206;21.006;2022-10-15T15:19:51;118.95;;;43.42;;
16436;SDS011;8328;52.206;21.006;2022-10-15T15:22:26;119.60;;;41.88;;
16436;SDS011;8328;52.206;21.006;2022-10-15T15:24:55;123.25;;;42.45;;
16436;SDS011;8328;52.206;21.006;2022-10-15T15:27:25;130.70;;;45.83;;
16436;SDS011;8328;52.206;21.006;2022-10-15T15:29:55;126.88;;;42.10;;
16436;SDS011;8328;52.206;21.006;2022-10-15T15:32:22;132.25;;;42.20;;
16436;SDS011;8328;52.206;21.006;2022-10-15T15:34:49;129.68;;;41.42;;
16436;SDS011;8328;52.206;21.006;2022-10-15T15:37:18;132.50;;;42.28;;
16436;SDS011;8328;52.206;21.006;2022-10-15T15:39:45;133.52;;;41.83;;
16436;SDS011;8328;52.206;21.006;2022-10-15T15:42:13;141.10;;;44.22;;
16436;SDS011;8328;52.206;21.006;2022-10-15T15:44:42;147.43;;;46.60;;
16436;SDS011;8328;52.206;21.006;2022-10-15T15:47:09;133.63;;;41.97;;
16436;SDS011;8328;52.206;21.006;2022-10-15T15:49:35;144.57;;;44.63;;
16436;SDS011;8328;52.206;21.006;2022-10-15T15:52:04;134.52;;;40.97;;
16436;SDS011;8328;52.206;21.006;2022-10-15T15:54:36;139.25;;;43.70;;
16436;SDS011;8328;52.206;21.006;2022-10-15T15:57:02;138.00;;;42.87;;
16436;SDS011;8328;52.206;21.006;2022-10-15T15:59:27;150.43;;;48.60;;
16436;SDS011;8328;52.206;21.006;2022-10-15T16:01:56;134.70;;;42.72;;
16436;SDS011;8328;52.206;21.006;2022-10-15T16:04:22;140.07;;;42.07;;
16436;SDS011;8328;52.206;21.006;2022-10-15T16:06:48;141.83;;;44.80;;
16436;SDS011;8328;52.206;21.006;2022-10-15T16:09:15;138.13;;;43.60;;
16436;SDS011;8328;52.206;21.006;2022-10-15T16:11:42;134.13;;;42.53;;
16436;SDS011;8328;52.206;21.006;2022-10-15T16:14:08;133.32;;;42.35;;
16436;SDS011;8328;52.206;21.006;2022-10-15T16:16:34;135.35;;;43.22;;
16436;SDS011;8328;52.206;21.006;2022-10-15T16:19:00;132.17;;;41.40;;
16436;SDS011;8328;52.206;21.006;2022-10-15T16:21:26;128.43;;;40.45;;
16436;SDS011;8328;52.206;21.006;2022-10-15T16:23:53;132.20;;;42.28;;